sensor_id;sensor_type;location;lat;lon;timestamp;P1;durP1;ratioP1;P2;durP2;ratioP2
71236;SDS011;58984;51.960;5.582;2022-09-01T00:01:36;2.97;;;1.25;;
71236;SDS011;58984;51.960;5.582;2022-09-01T00:04:05;2.65;;;1.48;;
71236;SDS011;58984;51.960;5.582;2022-09-01T00:06:34;2.70;;;1.30;;
71236;SDS011;58984;51.960;5.582;2022-09-01T00:09:02;3.58;;;1.80;;
71236;SDS011;58984;51.960;5.582;2022-09-01T00:11:30;1.55;;;1.40;;
71236;SDS011;58984;51.960;5.582;2022-09-01T00:13:56;4.05;;;1.60;;
71236;SDS011;58984;51.960;5.582;2022-09-01T00:16:26;1.77;;;1.50;;
71236;SDS011;58984;51.960;5.582;2022-09-01T00:18:54;4.30;;;1.42;;
71236;SDS011;58984;51.960;5.582;2022-09-01T00:21:22;3.53;;;1.63;;
71236;SDS011;58984;51.960;5.582;2022-09-01T00:23:50;2.45;;;1.60;;
71236;SDS011;58984;51.960;5.582;2022-09-01T00:26:16;2.25;;;1.23;;
71236;SDS011;58984;51.960;5.582;2022-09-01T00:28:42;3.60;;;1.70;;
71236;SDS011;58984;51.960;5.582;2022-09-01T00:31:08;3.20;;;1.40;;
71236;SDS011;58984;51.960;5.582;2022-09-01T00:33:35;1.65;;;1.48;;
71236;SDS011;58984;51.960;5.582;2022-09-01T00:36:02;1.63;;;1.40;;
71236;SDS011;58984;51.960;5.582;2022-09-01T00:38:28;2.33;;;1.60;;
71236;SDS011;58984;51.960;5.582;2022-09-01T00:40:53;1.98;;;1.50;;
71236;SDS011;58984;51.960;5.582;2022-09-01T00:46:04;2.45;;;1.63;;
71236;SDS011;58984;51.960;5.582;2022-09-01T00:48:32;2.65;;;1.80;;
71236;SDS011;58984;51.960;5.582;2022-09-01T00:50:58;5.28;;;1.77;;
71236;SDS011;58984;51.960;5.582;2022-09-01T00:53:25;3.75;;;1.65;;
71236;SDS011;58984;51.960;5.582;2022-09-01T00:55:50;2.70;;;1.50;;
71236;SDS011;58984;51.960;5.582;2022-09-01T00:58:16;2.50;;;1.60;;
71236;SDS011;58984;51.960;5.582;2022-09-01T01:00:41;3.67;;;1.50;;
71236;SDS011;58984;51.960;5.582;2022-09-01T01:03:11;2.00;;;1.60;;
71236;SDS011;58984;51.960;5.582;2022-09-01T01:05:39;3.35;;;1.55;;
71236;SDS011;58984;51.960;5.582;2022-09-01T01:08:11;2.42;;;1.77;;
71236;SDS011;58984;51.960;5.582;2022-09-01T01:10:37;1.75;;;1.42;;
71236;SDS011;58984;51.960;5.582;2022-09-01T01:13:08;3.47;;;1.50;;
71236;SDS011;58984;51.960;5.582;2022-09-01T01:15:38;1.48;;;1.33;;
71236;SDS011;58984;51.960;5.582;2022-09-01T01:18:07;2.83;;;1.63;;
71236;SDS011;58984;51.960;5.582;2022-09-01T01:20:34;2.92;;;1.50;;
71236;SDS011;58984;51.960;5.582;2022-09-01T01:26:11;1.58;;;1.48;;
71236;SDS011;58984;51.960;5.582;2022-09-01T01:28:38;2.85;;;1.65;;
71236;SDS011;58984;51.960;5.582;2022-09-01T01:31:07;3.60;;;1.58;;
71236;SDS011;58984;51.960;5.582;2022-09-01T01:33:38;2.42;;;1.30;;
71236;SDS011;58984;51.960;5.582;2022-09-01T01:36:20;2.20;;;1.35;;
71236;SDS011;58984;51.960;5.582;2022-09-01T01:38:58;2.80;;;1.90;;
71236;SDS011;58984;51.960;5.582;2022-09-01T01:41:27;1.77;;;1.55;;
71236;SDS011;58984;51.960;5.582;2022-09-01T01:43:58;1.88;;;1.48;;
71236;SDS011;58984;51.960;5.582;2022-09-01T01:46:28;2.15;;;1.50;;
71236;SDS011;58984;51.960;5.582;2022-09-01T01:48:54;2.25;;;1.65;;
71236;SDS011;58984;51.960;5.582;2022-09-01T01:51:20;2.63;;;1.75;;
71236;SDS011;58984;51.960;5.582;2022-09-01T01:53:51;2.20;;;1.67;;
71236;SDS011;58984;51.960;5.582;2022-09-01T01:56:21;2.22;;;1.70;;
71236;SDS011;58984;51.960;5.582;2022-09-01T01:58:50;2.35;;;1.65;;
71236;SDS011;58984;51.960;5.582;2022-09-01T02:01:18;6.93;;;1.83;;
71236;SDS011;58984;51.960;5.582;2022-09-01T02:03:45;3.80;;;1.92;;
71236;SDS011;58984;51.960;5.582;2022-09-01T02:06:11;3.50;;;1.80;;
71236;SDS011;58984;51.960;5.582;2022-09-01T02:08:37;2.05;;;1.60;;
71236;SDS011;58984;51.960;5.582;2022-09-01T02:11:05;2.55;;;1.65;;
71236;SDS011;58984;51.960;5.582;2022-09-01T02:13:32;1.70;;;1.52;;
71236;SDS011;58984;51.960;5.582;2022-09-01T02:16:01;3.53;;;1.58;;
71236;SDS011;58984;51.960;5.582;2022-09-01T02:18:35;2.60;;;1.67;;
71236;SDS011;58984;51.960;5.582;2022-09-01T02:21:03;3.58;;;2.22;;
71236;SDS011;58984;51.960;5.582;2022-09-01T02:23:34;3.55;;;1.55;;
71236;SDS011;58984;51.960;5.582;2022-09-01T02:26:00;2.75;;;1.70;;
71236;SDS011;58984;51.960;5.582;2022-09-01T02:28:26;6.72;;;1.90;;
71236;SDS011;58984;51.960;5.582;2022-09-01T02:30:56;2.63;;;1.77;;
71236;SDS011;58984;51.960;5.582;2022-09-01T02:33:23;2.17;;;1.75;;
71236;SDS011;58984;51.960;5.582;2022-09-01T02:35:51;3.97;;;1.83;;
71236;SDS011;58984;51.960;5.582;2022-09-01T02:38:22;3.63;;;1.92;;
71236;SDS011;58984;51.960;5.582;2022-09-01T02:40:53;2.20;;;1.90;;
71236;SDS011;58984;51.960;5.582;2022-09-01T02:43:23;2.47;;;1.80;;
71236;SDS011;58984;51.960;5.582;2022-09-01T02:45:53;2.38;;;1.73;;
71236;SDS011;58984;51.960;5.582;2022-09-01T02:48:26;2.55;;;1.80;;
71236;SDS011;58984;51.960;5.582;2022-09-01T02:51:02;2.70;;;2.10;;
71236;SDS011;58984;51.960;5.582;2022-09-01T02:53:29;2.40;;;1.73;;
71236;SDS011;58984;51.960;5.582;2022-09-01T02:55:58;5.82;;;2.20;;
71236;SDS011;58984;51.960;5.582;2022-09-01T02:58:26;2.70;;;1.63;;
71236;SDS011;58984;51.960;5.582;2022-09-01T03:00:53;2.38;;;1.67;;
71236;SDS011;58984;51.960;5.582;2022-09-01T03:03:20;2.22;;;1.80;;
71236;SDS011;58984;51.960;5.582;2022-09-01T03:05:47;1.90;;;1.70;;
71236;SDS011;58984;51.960;5.582;2022-09-01T03:08:19;3.15;;;1.83;;
71236;SDS011;58984;51.960;5.582;2022-09-01T03:10:45;3.53;;;1.60;;
71236;SDS011;58984;51.960;5.582;2022-09-01T03:13:15;2.33;;;1.77;;
71236;SDS011;58984;51.960;5.582;2022-09-01T03:15:43;2.38;;;1.70;;
71236;SDS011;58984;51.960;5.582;2022-09-01T03:18:09;4.32;;;2.00;;
71236;SDS011;58984;51.960;5.582;2022-09-01T03:20:36;5.03;;;2.25;;
71236;SDS011;58984;51.960;5.582;2022-09-01T03:23:08;2.75;;;1.60;;
71236;SDS011;58984;51.960;5.582;2022-09-01T03:25:36;2.20;;;1.58;;
71236;SDS011;58984;51.960;5.582;2022-09-01T03:28:02;2.65;;;1.73;;
71236;SDS011;58984;51.960;5.582;2022-09-01T03:30:30;3.38;;;1.98;;
71236;SDS011;58984;51.960;5.582;2022-09-01T03:32:59;3.63;;;2.13;;
71236;SDS011;58984;51.960;5.582;2022-09-01T03:35:26;3.83;;;1.95;;
71236;SDS011;58984;51.960;5.582;2022-09-01T03:37:56;3.75;;;1.85;;
71236;SDS011;58984;51.960;5.582;2022-09-01T03:40:24;2.55;;;2.10;;
71236;SDS011;58984;51.960;5.582;2022-09-01T03:42:52;4.03;;;1.88;;
71236;SDS011;58984;51.960;5.582;2022-09-01T03:45:19;3.30;;;1.98;;
71236;SDS011;58984;51.960;5.582;2022-09-01T03:47:45;2.85;;;1.77;;
71236;SDS011;58984;51.960;5.582;2022-09-01T03:50:13;2.55;;;1.70;;
71236;SDS011;58984;51.960;5.582;2022-09-01T03:52:44;3.20;;;1.80;;
71236;SDS011;58984;51.960;5.582;2022-09-01T03:55:18;3.80;;;2.00;;
71236;SDS011;58984;51.960;5.582;2022-09-01T03:57:54;3.25;;;1.88;;
71236;SDS011;58984;51.960;5.582;2022-09-01T04:00:23;4.25;;;1.90;;
71236;SDS011;58984;51.960;5.582;2022-09-01T04:02:53;4.82;;;1.65;;
71236;SDS011;58984;51.960;5.582;2022-09-01T04:05:21;2.85;;;1.80;;
71236;SDS011;58984;51.960;5.582;2022-09-01T04:07:52;3.92;;;1.92;;
71236;SDS011;58984;51.960;5.582;2022-09-01T04:10:18;3.95;;;2.03;;
71236;SDS011;58984;51.960;5.582;2022-09-01T04:12:46;2.78;;;1.55;;
71236;SDS011;58984;51.960;5.582;2022-09-01T04:15:14;3.08;;;1.90;;
71236;SDS011;58984;51.960;5.582;2022-09-01T04:17:41;3.45;;;1.70;;
71236;SDS011;58984;51.960;5.582;2022-09-01T04:20:26;3.90;;;2.15;;
71236;SDS011;58984;51.960;5.582;2022-09-01T04:22:52;1.90;;;1.70;;
71236;SDS011;58984;51.960;5.582;2022-09-01T04:25:19;3.38;;;2.10;;
71236;SDS011;58984;51.960;5.582;2022-09-01T04:27:48;3.13;;;1.90;;
71236;SDS011;58984;51.960;5.582;2022-09-01T04:30:21;3.13;;;1.88;;
71236;SDS011;58984;51.960;5.582;2022-09-01T04:32:55;2.25;;;1.80;;
71236;SDS011;58984;51.960;5.582;2022-09-01T04:35:21;3.95;;;1.77;;
71236;SDS011;58984;51.960;5.582;2022-09-01T04:37:56;2.47;;;2.08;;
71236;SDS011;58984;51.960;5.582;2022-09-01T04:40:22;4.05;;;1.85;;
71236;SDS011;58984;51.960;5.582;2022-09-01T04:42:48;2.65;;;1.65;;
71236;SDS011;58984;51.960;5.582;2022-09-01T04:45:14;3.42;;;1.80;;
71236;SDS011;58984;51.960;5.582;2022-09-01T04:47:40;3.20;;;1.60;;
71236;SDS011;58984;51.960;5.582;2022-09-01T04:50:07;3.10;;;2.00;;
71236;SDS011;58984;51.960;5.582;2022-09-01T04:52:38;3.87;;;1.67;;
71236;SDS011;58984;51.960;5.582;2022-09-01T04:55:06;6.18;;;1.98;;
71236;SDS011;58984;51.960;5.582;2022-09-01T04:57:32;3.80;;;1.95;;
71236;SDS011;58984;51.960;5.582;2022-09-01T04:59:59;3.67;;;1.70;;
71236;SDS011;58984;51.960;5.582;2022-09-01T05:02:25;1.77;;;1.60;;
71236;SDS011;58984;51.960;5.582;2022-09-01T05:04:53;3.80;;;1.67;;
71236;SDS011;58984;51.960;5.582;2022-09-01T05:07:19;2.45;;;1.92;;
71236;SDS011;58984;51.960;5.582;2022-09-01T05:09:45;2.65;;;1.60;;
71236;SDS011;58984;51.960;5.582;2022-09-01T05:12:11;3.17;;;1.80;;
71236;SDS011;58984;51.960;5.582;2022-09-01T05:14:37;2.70;;;1.90;;
71236;SDS011;58984;51.960;5.582;2022-09-01T05:17:06;2.47;;;1.80;;
71236;SDS011;58984;51.960;5.582;2022-09-01T05:19:35;3.05;;;1.85;;
71236;SDS011;58984;51.960;5.582;2022-09-01T05:22:02;1.95;;;1.77;;
71236;SDS011;58984;51.960;5.582;2022-09-01T05:24:29;4.65;;;2.03;;
71236;SDS011;58984;51.960;5.582;2022-09-01T05:26:56;2.58;;;1.88;;
71236;SDS011;58984;51.960;5.582;2022-09-01T05:29:24;4.78;;;1.98;;
71236;SDS011;58984;51.960;5.582;2022-09-01T05:31:51;3.20;;;2.00;;
71236;SDS011;58984;51.960;5.582;2022-09-01T05:34:18;2.20;;;1.90;;
71236;SDS011;58984;51.960;5.582;2022-09-01T05:36:50;3.63;;;2.05;;
71236;SDS011;58984;51.960;5.582;2022-09-01T05:39:17;2.50;;;1.70;;
71236;SDS011;58984;51.960;5.582;2022-09-01T05:41:43;3.63;;;1.70;;
71236;SDS011;58984;51.960;5.582;2022-09-01T05:44:09;2.28;;;1.50;;
71236;SDS011;58984;51.960;5.582;2022-09-01T05:46:36;5.90;;;1.95;;
71236;SDS011;58984;51.960;5.582;2022-09-01T05:49:04;3.28;;;1.60;;
71236;SDS011;58984;51.960;5.582;2022-09-01T05:51:31;1.90;;;1.73;;
71236;SDS011;58984;51.960;5.582;2022-09-01T05:53:59;2.85;;;1.70;;
71236;SDS011;58984;51.960;5.582;2022-09-01T05:56:26;3.08;;;1.88;;
71236;SDS011;58984;51.960;5.582;2022-09-01T05:58:54;4.60;;;1.95;;
71236;SDS011;58984;51.960;5.582;2022-09-01T06:01:23;2.45;;;1.67;;
71236;SDS011;58984;51.960;5.582;2022-09-01T06:03:51;3.92;;;1.80;;
71236;SDS011;58984;51.960;5.582;2022-09-01T06:06:23;2.58;;;1.60;;
71236;SDS011;58984;51.960;5.582;2022-09-01T06:08:51;2.63;;;1.67;;
71236;SDS011;58984;51.960;5.582;2022-09-01T06:11:22;4.20;;;1.83;;
71236;SDS011;58984;51.960;5.582;2022-09-01T06:13:50;2.90;;;1.75;;
71236;SDS011;58984;51.960;5.582;2022-09-01T06:16:16;3.22;;;2.10;;
71236;SDS011;58984;51.960;5.582;2022-09-01T06:18:43;3.72;;;1.90;;
71236;SDS011;58984;51.960;5.582;2022-09-01T06:21:10;3.45;;;1.85;;
71236;SDS011;58984;51.960;5.582;2022-09-01T06:23:41;2.10;;;1.70;;
71236;SDS011;58984;51.960;5.582;2022-09-01T06:26:14;3.13;;;1.52;;
71236;SDS011;58984;51.960;5.582;2022-09-01T06:28:51;4.65;;;1.90;;
71236;SDS011;58984;51.960;5.582;2022-09-01T06:31:19;5.60;;;1.98;;
71236;SDS011;58984;51.960;5.582;2022-09-01T06:33:47;3.13;;;1.88;;
71236;SDS011;58984;51.960;5.582;2022-09-01T06:36:15;2.70;;;1.83;;
71236;SDS011;58984;51.960;5.582;2022-09-01T06:38:41;2.80;;;1.80;;
71236;SDS011;58984;51.960;5.582;2022-09-01T06:41:07;3.17;;;1.55;;
71236;SDS011;58984;51.960;5.582;2022-09-01T06:43:34;3.00;;;1.52;;
71236;SDS011;58984;51.960;5.582;2022-09-01T06:46:01;6.15;;;1.90;;
71236;SDS011;58984;51.960;5.582;2022-09-01T06:48:27;7.47;;;1.80;;
71236;SDS011;58984;51.960;5.582;2022-09-01T06:50:54;6.43;;;1.70;;
71236;SDS011;58984;51.960;5.582;2022-09-01T06:53:23;4.60;;;1.63;;
71236;SDS011;58984;51.960;5.582;2022-09-01T06:55:48;2.75;;;1.60;;
71236;SDS011;58984;51.960;5.582;2022-09-01T06:58:14;5.70;;;1.67;;
71236;SDS011;58984;51.960;5.582;2022-09-01T07:00:40;3.78;;;1.60;;
71236;SDS011;58984;51.960;5.582;2022-09-01T07:03:07;1.52;;;1.42;;
71236;SDS011;58984;51.960;5.582;2022-09-01T07:05:38;3.33;;;1.85;;
71236;SDS011;58984;51.960;5.582;2022-09-01T07:08:05;4.22;;;1.50;;
71236;SDS011;58984;51.960;5.582;2022-09-01T07:10:38;3.85;;;1.60;;
71236;SDS011;58984;51.960;5.582;2022-09-01T07:13:09;2.88;;;1.50;;
71236;SDS011;58984;51.960;5.582;2022-09-01T07:15:44;5.15;;;1.70;;
71236;SDS011;58984;51.960;5.582;2022-09-01T07:18:13;3.38;;;1.60;;
71236;SDS011;58984;51.960;5.582;2022-09-01T07:20:43;4.47;;;1.48;;
71236;SDS011;58984;51.960;5.582;2022-09-01T07:23:11;6.25;;;1.77;;
71236;SDS011;58984;51.960;5.582;2022-09-01T07:25:37;3.35;;;1.70;;
71236;SDS011;58984;51.960;5.582;2022-09-01T07:28:06;5.28;;;2.17;;
71236;SDS011;58984;51.960;5.582;2022-09-01T07:30:32;2.20;;;1.60;;
71236;SDS011;58984;51.960;5.582;2022-09-01T07:33:04;3.03;;;1.95;;
71236;SDS011;58984;51.960;5.582;2022-09-01T07:35:36;2.53;;;1.60;;
71236;SDS011;58984;51.960;5.582;2022-09-01T07:38:02;2.63;;;1.40;;
71236;SDS011;58984;51.960;5.582;2022-09-01T07:40:34;4.00;;;1.60;;
71236;SDS011;58984;51.960;5.582;2022-09-01T07:43:06;3.97;;;2.23;;
71236;SDS011;58984;51.960;5.582;2022-09-01T07:45:34;2.30;;;1.77;;
71236;SDS011;58984;51.960;5.582;2022-09-01T07:48:02;3.35;;;1.30;;
71236;SDS011;58984;51.960;5.582;2022-09-01T07:50:31;1.58;;;1.40;;
71236;SDS011;58984;51.960;5.582;2022-09-01T07:52:57;2.78;;;1.30;;
71236;SDS011;58984;51.960;5.582;2022-09-01T07:55:24;2.25;;;1.30;;
71236;SDS011;58984;51.960;5.582;2022-09-01T07:57:52;2.00;;;1.52;;
71236;SDS011;58984;51.960;5.582;2022-09-01T08:00:17;1.67;;;1.13;;
71236;SDS011;58984;51.960;5.582;2022-09-01T08:02:45;1.30;;;1.20;;
71236;SDS011;58984;51.960;5.582;2022-09-01T08:05:14;1.52;;;1.40;;
71236;SDS011;58984;51.960;5.582;2022-09-01T08:07:43;3.58;;;1.30;;
71236;SDS011;58984;51.960;5.582;2022-09-01T08:10:11;2.97;;;1.40;;
71236;SDS011;58984;51.960;5.582;2022-09-01T08:12:37;3.08;;;1.60;;
71236;SDS011;58984;51.960;5.582;2022-09-01T08:15:03;2.08;;;1.33;;
71236;SDS011;58984;51.960;5.582;2022-09-01T08:17:30;1.98;;;1.30;;
71236;SDS011;58984;51.960;5.582;2022-09-01T08:19:56;5.35;;;2.03;;
71236;SDS011;58984;51.960;5.582;2022-09-01T08:22:21;2.33;;;1.60;;
71236;SDS011;58984;51.960;5.582;2022-09-01T08:24:49;2.63;;;1.50;;
71236;SDS011;58984;51.960;5.582;2022-09-01T08:27:15;1.15;;;1.05;;
71236;SDS011;58984;51.960;5.582;2022-09-01T08:29:41;1.52;;;1.33;;
71236;SDS011;58984;51.960;5.582;2022-09-01T08:32:06;3.20;;;1.30;;
71236;SDS011;58984;51.960;5.582;2022-09-01T08:34:32;2.53;;;1.40;;
71236;SDS011;58984;51.960;5.582;2022-09-01T08:36:58;2.60;;;1.30;;
71236;SDS011;58984;51.960;5.582;2022-09-01T08:39:24;4.75;;;1.42;;
71236;SDS011;58984;51.960;5.582;2022-09-01T08:41:58;2.60;;;2.00;;
71236;SDS011;58984;51.960;5.582;2022-09-01T08:44:45;3.83;;;1.50;;
71236;SDS011;58984;51.960;5.582;2022-09-01T08:47:26;4.07;;;1.40;;
71236;SDS011;58984;51.960;5.582;2022-09-01T08:49:52;2.28;;;1.40;;
71236;SDS011;58984;51.960;5.582;2022-09-01T08:55:43;3.63;;;1.30;;
71236;SDS011;58984;51.960;5.582;2022-09-01T08:58:12;1.85;;;1.13;;
71236;SDS011;58984;51.960;5.582;2022-09-01T09:00:41;3.58;;;1.48;;
71236;SDS011;58984;51.960;5.582;2022-09-01T09:05:56;2.28;;;1.25;;
71236;SDS011;58984;51.960;5.582;2022-09-01T09:16:25;6.07;;;1.60;;
71236;SDS011;58984;51.960;5.582;2022-09-01T09:18:56;3.30;;;1.75;;
71236;SDS011;58984;51.960;5.582;2022-09-01T09:21:39;3.28;;;1.60;;
71236;SDS011;58984;51.960;5.582;2022-09-01T09:26:51;2.00;;;1.30;;
71236;SDS011;58984;51.960;5.582;2022-09-01T09:29:18;3.75;;;1.38;;
71236;SDS011;58984;51.960;5.582;2022-09-01T09:31:45;1.70;;;1.30;;
71236;SDS011;58984;51.960;5.582;2022-09-01T09:34:31;1.88;;;1.10;;
71236;SDS011;58984;51.960;5.582;2022-09-01T09:40:08;3.40;;;1.42;;
71236;SDS011;58984;51.960;5.582;2022-09-01T09:45:30;2.03;;;1.40;;
71236;SDS011;58984;51.960;5.582;2022-09-01T09:48:00;1.75;;;1.20;;
71236;SDS011;58984;51.960;5.582;2022-09-01T09:50:35;2.55;;;1.30;;
71236;SDS011;58984;51.960;5.582;2022-09-01T09:55:49;1.75;;;1.02;;
71236;SDS011;58984;51.960;5.582;2022-09-01T09:58:34;1.55;;;0.98;;
71236;SDS011;58984;51.960;5.582;2022-09-01T10:01:07;2.45;;;1.20;;
71236;SDS011;58984;51.960;5.582;2022-09-01T10:03:44;1.40;;;1.25;;
71236;SDS011;58984;51.960;5.582;2022-09-01T10:06:15;1.55;;;1.15;;
71236;SDS011;58984;51.960;5.582;2022-09-01T10:08:54;2.47;;;1.20;;
71236;SDS011;58984;51.960;5.582;2022-09-01T10:11:24;1.55;;;1.10;;
71236;SDS011;58984;51.960;5.582;2022-09-01T10:13:57;3.38;;;1.23;;
71236;SDS011;58984;51.960;5.582;2022-09-01T10:16:26;2.85;;;1.42;;
71236;SDS011;58984;51.960;5.582;2022-09-01T10:18:55;2.53;;;1.35;;
71236;SDS011;58984;51.960;5.582;2022-09-01T10:21:34;1.80;;;1.13;;
71236;SDS011;58984;51.960;5.582;2022-09-01T10:24:26;1.58;;;1.23;;
71236;SDS011;58984;51.960;5.582;2022-09-01T10:27:02;2.85;;;1.13;;
71236;SDS011;58984;51.960;5.582;2022-09-01T10:32:31;2.67;;;0.98;;
71236;SDS011;58984;51.960;5.582;2022-09-01T10:35:12;1.75;;;0.93;;
71236;SDS011;58984;51.960;5.582;2022-09-01T10:38:01;3.00;;;1.10;;
71236;SDS011;58984;51.960;5.582;2022-09-01T10:40:37;1.85;;;0.95;;
71236;SDS011;58984;51.960;5.582;2022-09-01T10:43:24;1.35;;;1.20;;
71236;SDS011;58984;51.960;5.582;2022-09-01T10:45:56;1.25;;;0.80;;
71236;SDS011;58984;51.960;5.582;2022-09-01T10:48:25;2.30;;;1.23;;
71236;SDS011;58984;51.960;5.582;2022-09-01T10:50:57;1.98;;;1.00;;
71236;SDS011;58984;51.960;5.582;2022-09-01T11:04:10;3.00;;;0.90;;
71236;SDS011;58984;51.960;5.582;2022-09-01T11:09:07;3.05;;;1.00;;
71236;SDS011;58984;51.960;5.582;2022-09-01T11:17:21;1.20;;;1.08;;
71236;SDS011;58984;51.960;5.582;2022-09-01T11:19:56;1.60;;;1.30;;
71236;SDS011;58984;51.960;5.582;2022-09-01T11:22:37;1.52;;;0.90;;
71236;SDS011;58984;51.960;5.582;2022-09-01T11:27:58;2.03;;;1.10;;
71236;SDS011;58984;51.960;5.582;2022-09-01T11:33:11;4.55;;;1.58;;
71236;SDS011;58984;51.960;5.582;2022-09-01T11:35:49;1.38;;;1.10;;
71236;SDS011;58984;51.960;5.582;2022-09-01T11:38:23;2.60;;;1.08;;
71236;SDS011;58984;51.960;5.582;2022-09-01T11:40:54;1.63;;;1.05;;
71236;SDS011;58984;51.960;5.582;2022-09-01T11:43:21;3.10;;;1.00;;
71236;SDS011;58984;51.960;5.582;2022-09-01T11:45:54;1.55;;;0.82;;
71236;SDS011;58984;51.960;5.582;2022-09-01T11:48:32;1.50;;;1.02;;
71236;SDS011;58984;51.960;5.582;2022-09-01T11:50:58;1.00;;;0.85;;
71236;SDS011;58984;51.960;5.582;2022-09-01T11:53:25;1.33;;;1.08;;
71236;SDS011;58984;51.960;5.582;2022-09-01T11:55:52;2.15;;;1.10;;
71236;SDS011;58984;51.960;5.582;2022-09-01T12:00:53;1.75;;;1.00;;
71236;SDS011;58984;51.960;5.582;2022-09-01T12:03:21;1.45;;;0.90;;
71236;SDS011;58984;51.960;5.582;2022-09-01T12:05:47;1.67;;;0.90;;
71236;SDS011;58984;51.960;5.582;2022-09-01T12:08:23;2.15;;;0.80;;
71236;SDS011;58984;51.960;5.582;2022-09-01T12:10:59;1.60;;;1.13;;
71236;SDS011;58984;51.960;5.582;2022-09-01T12:13:31;3.70;;;0.93;;
71236;SDS011;58984;51.960;5.582;2022-09-01T12:16:08;1.45;;;1.00;;
71236;SDS011;58984;51.960;5.582;2022-09-01T12:18:36;1.40;;;0.90;;
71236;SDS011;58984;51.960;5.582;2022-09-01T12:21:15;1.40;;;1.17;;
71236;SDS011;58984;51.960;5.582;2022-09-01T12:24:17;0.90;;;0.90;;
71236;SDS011;58984;51.960;5.582;2022-09-01T12:26:45;1.60;;;1.02;;
71236;SDS011;58984;51.960;5.582;2022-09-01T12:29:12;1.55;;;1.15;;
71236;SDS011;58984;51.960;5.582;2022-09-01T12:31:39;2.05;;;0.93;;
71236;SDS011;58984;51.960;5.582;2022-09-01T12:34:22;1.60;;;0.90;;
71236;SDS011;58984;51.960;5.582;2022-09-01T12:37:02;2.35;;;0.95;;
71236;SDS011;58984;51.960;5.582;2022-09-01T12:39:32;1.25;;;0.90;;
71236;SDS011;58984;51.960;5.582;2022-09-01T12:44:44;1.88;;;0.98;;
71236;SDS011;58984;51.960;5.582;2022-09-01T12:50:03;1.83;;;0.95;;
71236;SDS011;58984;51.960;5.582;2022-09-01T12:52:48;1.25;;;0.93;;
71236;SDS011;58984;51.960;5.582;2022-09-01T12:55:17;2.13;;;1.15;;
71236;SDS011;58984;51.960;5.582;2022-09-01T12:57:50;1.30;;;0.98;;
71236;SDS011;58984;51.960;5.582;2022-09-01T13:00:19;1.90;;;1.00;;
71236;SDS011;58984;51.960;5.582;2022-09-01T13:03:30;1.50;;;1.10;;
71236;SDS011;58984;51.960;5.582;2022-09-01T13:05:39;2.10;;;1.05;;
71236;SDS011;58984;51.960;5.582;2022-09-01T13:08:11;2.45;;;1.10;;
71236;SDS011;58984;51.960;5.582;2022-09-01T13:13:13;2.13;;;1.15;;
71236;SDS011;58984;51.960;5.582;2022-09-01T13:15:44;4.03;;;1.02;;
71236;SDS011;58984;51.960;5.582;2022-09-01T13:18:12;1.30;;;1.00;;
71236;SDS011;58984;51.960;5.582;2022-09-01T13:20:38;1.35;;;0.85;;
71236;SDS011;58984;51.960;5.582;2022-09-01T13:23:05;1.98;;;1.25;;
71236;SDS011;58984;51.960;5.582;2022-09-01T13:25:31;1.33;;;0.88;;
71236;SDS011;58984;51.960;5.582;2022-09-01T13:27:57;3.50;;;1.50;;
71236;SDS011;58984;51.960;5.582;2022-09-01T13:30:24;1.40;;;1.10;;
71236;SDS011;58984;51.960;5.582;2022-09-01T13:32:54;1.42;;;1.10;;
71236;SDS011;58984;51.960;5.582;2022-09-01T13:35:20;3.00;;;1.23;;
71236;SDS011;58984;51.960;5.582;2022-09-01T13:37:47;3.92;;;1.70;;
71236;SDS011;58984;51.960;5.582;2022-09-01T13:40:14;4.95;;;1.50;;
71236;SDS011;58984;51.960;5.582;2022-09-01T13:42:42;4.32;;;1.33;;
71236;SDS011;58984;51.960;5.582;2022-09-01T13:45:09;2.88;;;1.42;;
71236;SDS011;58984;51.960;5.582;2022-09-01T13:47:37;2.10;;;1.33;;
71236;SDS011;58984;51.960;5.582;2022-09-01T13:50:03;1.95;;;1.40;;
71236;SDS011;58984;51.960;5.582;2022-09-01T13:52:29;2.22;;;1.15;;
71236;SDS011;58984;51.960;5.582;2022-09-01T13:54:55;1.77;;;1.27;;
71236;SDS011;58984;51.960;5.582;2022-09-01T13:57:20;1.88;;;1.13;;
71236;SDS011;58984;51.960;5.582;2022-09-01T13:59:46;2.15;;;1.20;;
71236;SDS011;58984;51.960;5.582;2022-09-01T14:02:11;1.27;;;1.17;;
71236;SDS011;58984;51.960;5.582;2022-09-01T14:04:37;1.33;;;1.05;;
71236;SDS011;58984;51.960;5.582;2022-09-01T14:07:03;1.92;;;1.05;;
71236;SDS011;58984;51.960;5.582;2022-09-01T14:09:28;1.88;;;1.20;;
71236;SDS011;58984;51.960;5.582;2022-09-01T14:11:54;1.20;;;0.98;;
71236;SDS011;58984;51.960;5.582;2022-09-01T14:14:21;1.95;;;1.20;;
71236;SDS011;58984;51.960;5.582;2022-09-01T14:16:47;3.28;;;1.23;;
71236;SDS011;58984;51.960;5.582;2022-09-01T14:19:13;1.63;;;0.90;;
71236;SDS011;58984;51.960;5.582;2022-09-01T14:21:39;1.25;;;0.88;;
71236;SDS011;58984;51.960;5.582;2022-09-01T14:24:05;2.00;;;1.08;;
71236;SDS011;58984;51.960;5.582;2022-09-01T14:26:31;2.58;;;1.15;;
71236;SDS011;58984;51.960;5.582;2022-09-01T14:28:56;2.67;;;1.38;;
71236;SDS011;58984;51.960;5.582;2022-09-01T14:31:26;1.98;;;1.38;;
71236;SDS011;58984;51.960;5.582;2022-09-01T14:33:53;2.53;;;1.30;;
71236;SDS011;58984;51.960;5.582;2022-09-01T14:36:23;1.70;;;1.27;;
71236;SDS011;58984;51.960;5.582;2022-09-01T14:38:50;1.63;;;1.15;;
71236;SDS011;58984;51.960;5.582;2022-09-01T14:41:17;2.08;;;1.08;;
71236;SDS011;58984;51.960;5.582;2022-09-01T14:43:48;2.28;;;1.20;;
71236;SDS011;58984;51.960;5.582;2022-09-01T14:46:17;2.58;;;1.08;;
71236;SDS011;58984;51.960;5.582;2022-09-01T14:48:44;2.05;;;1.13;;
71236;SDS011;58984;51.960;5.582;2022-09-01T14:51:18;2.22;;;1.20;;
71236;SDS011;58984;51.960;5.582;2022-09-01T14:53:52;1.38;;;1.20;;
71236;SDS011;58984;51.960;5.582;2022-09-01T14:56:18;1.83;;;1.20;;
71236;SDS011;58984;51.960;5.582;2022-09-01T14:58:45;3.08;;;1.40;;
71236;SDS011;58984;51.960;5.582;2022-09-01T15:01:13;3.17;;;1.23;;
71236;SDS011;58984;51.960;5.582;2022-09-01T15:03:42;2.67;;;1.40;;
71236;SDS011;58984;51.960;5.582;2022-09-01T15:06:10;2.08;;;1.20;;
71236;SDS011;58984;51.960;5.582;2022-09-01T15:08:37;1.30;;;1.20;;
71236;SDS011;58984;51.960;5.582;2022-09-01T15:11:06;2.55;;;1.27;;
71236;SDS011;58984;51.960;5.582;2022-09-01T15:13:36;1.83;;;1.30;;
71236;SDS011;58984;51.960;5.582;2022-09-01T15:16:03;3.30;;;1.55;;
71236;SDS011;58984;51.960;5.582;2022-09-01T15:18:29;1.92;;;1.20;;
71236;SDS011;58984;51.960;5.582;2022-09-01T15:20:55;2.03;;;1.10;;
71236;SDS011;58984;51.960;5.582;2022-09-01T15:23:22;3.63;;;1.25;;
71236;SDS011;58984;51.960;5.582;2022-09-01T15:25:50;1.20;;;1.10;;
71236;SDS011;58984;51.960;5.582;2022-09-01T15:28:17;2.65;;;1.13;;
71236;SDS011;58984;51.960;5.582;2022-09-01T15:30:42;2.63;;;1.38;;
71236;SDS011;58984;51.960;5.582;2022-09-01T15:33:09;2.55;;;1.27;;
71236;SDS011;58984;51.960;5.582;2022-09-01T15:35:36;2.97;;;1.20;;
71236;SDS011;58984;51.960;5.582;2022-09-01T15:38:02;1.98;;;1.10;;
71236;SDS011;58984;51.960;5.582;2022-09-01T15:40:29;1.88;;;1.20;;
71236;SDS011;58984;51.960;5.582;2022-09-01T15:42:56;2.17;;;1.10;;
71236;SDS011;58984;51.960;5.582;2022-09-01T15:45:22;1.35;;;1.00;;
71236;SDS011;58984;51.960;5.582;2022-09-01T15:47:48;2.50;;;1.10;;
71236;SDS011;58984;51.960;5.582;2022-09-01T15:50:15;1.70;;;1.33;;
71236;SDS011;58984;51.960;5.582;2022-09-01T15:52:45;1.08;;;0.98;;
71236;SDS011;58984;51.960;5.582;2022-09-01T15:55:39;2.15;;;1.20;;
71236;SDS011;58984;51.960;5.582;2022-09-01T15:58:07;1.35;;;1.02;;
71236;SDS011;58984;51.960;5.582;2022-09-01T16:00:34;1.45;;;1.35;;
71236;SDS011;58984;51.960;5.582;2022-09-01T16:02:59;3.13;;;1.30;;
71236;SDS011;58984;51.960;5.582;2022-09-01T16:05:26;1.35;;;1.25;;
71236;SDS011;58984;51.960;5.582;2022-09-01T16:07:53;2.15;;;1.20;;
71236;SDS011;58984;51.960;5.582;2022-09-01T16:10:19;2.78;;;1.35;;